x

Freeport, Tx - 60 Nm South Of Freeport, Tx (42019) Wave Buoy

7:50am - Fri 23rd Jun 2017 All times are CDT. -5 hours from GMT.

  • Sig Wave height 7.9ft
  • Swell Direction
  • Peak Period 7s
  • Average Period 6s
  • Wind
    18mph, 22mph gusts
  • Sea Temp 83°f
  • Air Temp 83°f
  • Sea Pressure 1009.2mb
  • Freeport, Tx - 60 Nm South Of Freeport, Tx
  • Freeport, Tx - 60 Nm South Of Freeport, Tx

More Historic Weather Station data

Upgrade to MSW Pro to gain access to the past 30 days of data for over 8000 Wavebouys and Weather Stations around the globe.

Join Pro

Comparision Forecast

View Surf forecast
   
Fri 06/23 7:50am 8ft 7s 6s 18 22 mph 1009.2mb 83f 83f
6:50am 9ft 7s 6s 20 22 mph 1008.6mb 83f 83f
5:50am 8.5ft 7s 6s 22 27 mph 1008.1mb 83f 83f
4:50am 8ft 7s 6s 25 29 mph 1007.5mb 83f 83f
3:50am 8.5ft 7s 6s 27 31 mph 1007.1mb 83f 83f
2:50am 8ft 7s 6s 25 31 mph 1007mb 83f 83f
1:50am 7ft 7s 5s 25 29 mph 1007mb 83f 83f
12:50am 7ft 7s 5s 25 29 mph 1006.8mb 83f 83f
Thu 06/22 11:50pm 8ft 7s 6s 25 31 mph 1006.6mb 83f 83f
10:50pm 7ft 7s 6s 25 31 mph 1006.6mb 83f 83f
9:50pm 7ft 6s 6s 25 29 mph 1006.1mb 83f 83f
8:50pm 6ft 5s 5s 22 27 mph 1006.1mb 83f 83f
7:50pm 6ft 6s 5s 22 27 mph 1005.9mb 83f 83f
6:50pm 6ft 6s 5s 22 27 mph 1005.5mb 83f 84f
5:50pm 5.5ft 6s 5s 20 25 mph 1005.8mb 83f 84f
3:50pm 5ft 9s 5s 18 22 mph 1006.6mb 83f 84f
2:50pm 5ft 6s 5s 13 16 mph 1007.3mb 83f 84f
1:50pm 4.5ft 6s 5s 13 18 mph 1007.3mb 83f 84f
12:50pm 4.5ft 9s 5s 13 16 mph 1007.6mb 83f 83f
11:50am 5ft 10s 5s 11 13 mph 1007.3mb 83f 83f
10:50am 4.5ft 5s 5s 16 18 mph 1006.9mb 83f 83f
9:50am 4.5ft 9s 5s 18 22 mph 1006.5mb 82f 83f
8:50am 4.5ft 9s 5s 13 16 mph 1006mb 82f 83f
7:50am 4.5ft 9s 5s 11 13 mph 1005.3mb 82f 83f
6:50am 4.5ft 9s 5s 16 18 mph 1004.8mb 82f 83f
5:50am 4.5ft 9s 5s 13 18 mph 1004mb 82f 82f
4:50am 5ft 10s 6s 16 20 mph 1003.4mb 82f 82f
3:50am 5.5ft 7s 6s 16 18 mph 1003.2mb 82f 82f
2:50am 5.5ft 7s 6s 16 18 mph 1002.9mb 83f 83f
1:50am 6ft 7s 6s 16 20 mph 1002.9mb 82f 83f
12:50am 6ft 8s 6s 11 16 mph 1003.2mb 83f 83f
Wed 06/21 11:50pm 6.5ft 8s 6s 13 16 mph 1003.5mb 83f 82f
10:50pm 6.5ft 7s 6s 18 22 mph 1002.9mb 83f 83f
9:50pm 7ft 8s 6s 18 20 mph 1002.4mb 83f 82f
8:50pm 7.5ft 7s 6s 25 27 mph 1002.2mb 83f 83f
7:50pm 9ft 7s 6s 20 25 mph 1002.1mb 83f 81f
6:50pm 8.5ft 8s 6s 27 31 mph 1001.8mb 83f 82f
5:50pm 8ft 8s 5s 27 31 mph 1001.2mb 83f 83f
4:50pm 8.5ft 8s 6s 25 29 mph 1001.8mb 83f 83f
3:50pm 9.5ft 8s 6s 25 27 mph 1002.8mb 83f 82f
2:50pm 9.5ft 9s 6s 25 29 mph 1003.4mb 83f 81f
1:50pm 10ft 10s 6s 27 31 mph 1004.2mb 83f 81f
12:50pm 9ft 10s 6s 25 29 mph 1004.4mb 83f 81f
11:50am 11.5ft 10s 7s 25 29 mph 1004.7mb 83f 80f
10:50am 11.5ft 10s 7s 27 29 mph 1005.1mb 83f 80f
9:50am 11ft 10s 7s 27 31 mph 1005.2mb 83f 81f
8:50am 12.5ft 11s 7s 27 34 mph 1005mb 83f 81f
7:50am 12ft 10s 7s 27 34 mph 1005.1mb 83f 81f
6:50am 11.5ft 10s 7s 27 31 mph 1004.7mb 83f 81f
5:50am 11ft 10s 7s 27 34 mph 1004.7mb 83f 82f
4:50am 10ft 11s 6s 27 31 mph 1005.1mb 83f 82f
3:50am 10ft 10s 7s 27 31 mph 1005.6mb 83f 82f
2:50am 9ft 10s 6s 27 31 mph 1006.6mb 83f 82f
1:50am 9ft 10s 6s 25 29 mph 1007.5mb 83f 83f
12:50am 9.5ft 10s 7s 18 22 mph 1007.9mb 84f 83f
Tue 06/20 11:50pm 9ft 11s 6s 18 22 mph 1008.7mb 84f 82f
10:50pm 9ft 10s 6s 20 22 mph 1008.7mb 84f 83f
9:50pm 8ft 10s 6s 25 29 mph 1008.5mb 84f 84f
8:50pm 8ft 8s 6s 22 25 mph 1008.4mb 84f 84f
7:50pm 8ft 11s 6s 22 25 mph 1008.5mb 84f 84f
6:50pm 7.5ft 9s 6s 25 29 mph 1008.5mb 84f 85f
5:50pm 7ft 8s  -  22 27 mph 1008.6mb 84f 84f
4:50pm 7ft 11s 6s 22 25 mph 1009.3mb 84f 84f
3:50pm 6.5ft 11s  -  20 25 mph 1009.7mb 84f 84f
2:50pm 6ft 7s 5s 20 25 mph 1010.7mb 84f 83f
1:50pm 5ft 7s 5s 20 22 mph 1010.9mb 84f 83f
12:50pm 5ft 8s 5s 20 22 mph 1011.4mb 83f 84f
11:50am 4.5ft 4s 5s 18 20 mph 1011.7mb 83f 83f
10:50am 4.5ft 5s 5s 20 22 mph 1011.5mb 83f 84f
9:50am 4ft 6s 4s 18 22 mph 1011.5mb 83f 83f
8:50am 3.5ft 4s 4s 18 20 mph 1011.5mb 83f 83f
7:50am 3.5ft 6s 4s 20 22 mph 1011.1mb 83f 83f
6:50am 2.5ft 5s 4s 18 22 mph 1010.7mb 83f 83f
5:50am 2.5ft 6s 4s 18 20 mph 1010.5mb 83f 83f
4:50am 2.5ft 6s 4s 11 13 mph 1010.6mb 83f 83f
3:50am 2ft 6s 4s 11 13 mph 1011mb 84f 83f
2:50am 2ft 6s 4s 9 9 mph 1011.5mb 84f 83f
1:50am 2.5ft 5s 4s 7 9 mph 1012.2mb 84f 83f
12:50am 2.5ft 6s 4s 9 9 mph 1012.7mb 84f 83f
Mon 06/19 11:50pm 2.5ft 5s 4s 9 11 mph 1013mb 84f 83f
10:50pm 2.5ft 5s 4s 16 18 mph 1012.6mb 84f 83f
9:50pm 2.5ft 5s 4s 16 18 mph 1012.2mb 84f 83f
8:50pm 2.5ft 6s 4s 13 16 mph 1011.8mb 84f 83f
7:50pm 2.5ft 6s 5s 11 13 mph 1011.7mb 84f 83f
6:50pm 2ft 6s 5s 11 13 mph 1011mb 84f 83f
5:50pm 2.5ft 6s 5s 9 11 mph 1010.9mb 84f 83f
4:50pm 2.5ft 6s 5s 9 11 mph 1011.5mb 84f 83f
3:50pm 2.5ft 6s 5s 9 11 mph 1012.3mb 85f 84f
2:50pm 2.5ft 6s 5s 9 11 mph 1012.9mb 85f 83f
1:50pm 2.5ft 6s 5s 9 11 mph 1013.4mb 84f 83f